Time;durP1;ratioP1;P1;durP2;ratioP2;P2;SDS_P1;SDS_P2;PMS_P1;PMS_P2;Temp;Humidity;BMP_temperature;BMP_pressure;BME280_temperature;BME280_humidity;BME280_pressure;Samples;Min_cycle;Max_cycle;Signal;HPM_P1;HPM_P2
2022/11/23 00:01:28;;;;;;;4.67;2.87;;;;;;;1.29;100.00;99547.95;1742230;80;21046;-60
2022/11/23 00:03:57;;;;;;;4.30;2.95;;;;;;;1.24;100.00;99547.55;1765644;80;21871;-59
2022/11/23 00:06:25;;;;;;;4.25;2.95;;;;;;;1.25;100.00;99558.63;1781161;80;20901;-66
2022/11/23 00:08:52;;;;;;;4.12;2.87;;;;;;;1.23;100.00;99566.95;1748117;80;20988;-58
2022/11/23 00:11:22;;;;;;;4.30;3.10;;;;;;;1.17;100.00;99572.96;1769341;80;20936;-58
2022/11/23 00:13:49;;;;;;;5.30;3.12;;;;;;;1.18;100.00;99574.60;1759569;80;21035;-61
2022/11/23 00:16:20;;;;;;;5.53;3.58;;;;;;;1.22;100.00;99573.85;1757992;80;21177;-58
2022/11/23 00:18:50;;;;;;;5.92;3.92;;;;;;;1.23;100.00;99577.22;1753356;80;20940;-66
2022/11/23 00:21:17;;;;;;;6.47;3.83;;;;;;;1.13;100.00;99567.77;1756650;80;20978;-59
2022/11/23 00:23:44;;;;;;;5.80;3.90;;;;;;;1.15;100.00;99590.75;1749745;80;21038;-58
2022/11/23 00:26:12;;;;;;;4.80;3.40;;;;;;;1.13;100.00;99590.07;1743902;80;21071;-60
2022/11/23 00:28:41;;;;;;;6.20;4.25;;;;;;;1.17;100.00;99588.84;1757596;80;21821;-59
2022/11/23 00:31:10;;;;;;;6.33;4.00;;;;;;;1.22;100.00;99600.80;1749014;80;20975;-65
2022/11/23 00:33:37;;;;;;;6.22;4.35;;;;;;;1.17;100.00;99610.19;1751872;80;21617;-65
2022/11/23 00:36:10;;;;;;;6.65;4.75;;;;;;;1.11;100.00;99613.80;1743803;80;21026;-61
2022/11/23 00:38:37;;;;;;;7.37;5.20;;;;;;;1.07;100.00;99609.89;1747362;80;21080;-61
2022/11/23 00:41:07;;;;;;;7.90;5.37;;;;;;;1.08;100.00;99620.48;1755457;80;21227;-63
2022/11/23 00:43:35;;;;;;;7.37;5.55;;;;;;;1.08;100.00;99629.47;1751948;80;25223;-58
2022/11/23 00:46:14;;;;;;;7.50;5.50;;;;;;;1.08;100.00;99626.91;1748468;80;20906;-59
2022/11/23 00:48:45;;;;;;;8.03;6.15;;;;;;;1.07;100.00;99632.98;1750795;80;20888;-61
2022/11/23 00:51:15;;;;;;;8.28;5.62;;;;;;;1.07;100.00;99638.93;1744629;80;21403;-61
2022/11/23 00:53:43;;;;;;;7.97;5.65;;;;;;;1.09;100.00;99637.02;1743905;81;21802;-59
2022/11/23 00:56:11;;;;;;;7.92;5.58;;;;;;;1.09;100.00;99640.87;1743765;82;20930;-58
2022/11/23 00:58:39;;;;;;;9.03;6.20;;;;;;;1.10;100.00;99645.08;1743811;82;20978;-58
2022/11/23 01:01:12;;;;;;;8.98;6.15;;;;;;;1.18;100.00;99644.39;1743310;82;20985;-59
2022/11/23 01:03:45;;;;;;;8.60;5.75;;;;;;;1.19;100.00;99646.80;1719184;82;21460;-58
2022/11/23 01:06:21;;;;;;;9.25;6.30;;;;;;;1.23;100.00;99651.67;1762217;80;22386;-58
2022/11/23 01:08:53;;;;;;;9.03;6.10;;;;;;;1.23;100.00;99655.52;1774168;80;21020;-65
2022/11/23 01:11:22;;;;;;;8.88;5.80;;;;;;;1.19;100.00;99649.38;1774545;80;21559;-58
2022/11/23 01:13:49;;;;;;;8.53;6.33;;;;;;;1.20;100.00;99659.17;1774376;80;20928;-59
2022/11/23 01:16:22;;;;;;;8.05;6.03;;;;;;;1.21;100.00;99655.20;1774800;80;21548;-58
2022/11/23 01:18:58;;;;;;;9.45;7.30;;;;;;;1.25;100.00;99654.89;1773663;80;21142;-65
2022/11/23 01:21:27;;;;;;;9.40;7.05;;;;;;;1.23;100.00;99667.88;1774737;80;20991;-58
2022/11/23 01:23:54;;;;;;;9.93;7.30;;;;;;;1.20;100.00;99666.39;1774566;80;21034;-59
2022/11/23 01:26:22;;;;;;;9.98;6.70;;;;;;;1.13;100.00;99674.30;1774299;80;21041;-58
2022/11/23 01:28:49;;;;;;;8.53;6.40;;;;;;;1.13;100.00;99674.77;1773741;80;20924;-65
2022/11/23 01:31:18;;;;;;;9.35;7.00;;;;;;;1.08;100.00;99679.52;1774379;80;21264;-59
2022/11/23 01:33:46;;;;;;;11.05;6.85;;;;;;;1.06;100.00;99688.65;1774449;80;20936;-60
2022/11/23 01:36:18;;;;;;;10.45;6.92;;;;;;;1.06;100.00;99686.53;1764505;80;20865;-58
2022/11/23 01:38:48;;;;;;;9.55;6.72;;;;;;;1.08;100.00;99693.63;1756373;81;21518;-63
2022/11/23 01:41:19;;;;;;;10.38;7.85;;;;;;;1.15;100.00;99699.38;1756710;81;21499;-59
2022/11/23 01:43:48;;;;;;;9.70;7.05;;;;;;;1.19;100.00;99703.28;1756785;80;21506;-58
2022/11/23 01:46:16;;;;;;;11.55;7.55;;;;;;;1.23;100.00;99707.67;1756760;81;20941;-59
2022/11/23 01:48:56;;;;;;;9.83;6.92;;;;;;;1.26;100.00;99719.44;1756220;81;20937;-64
2022/11/23 01:51:33;;;;;;;9.63;7.45;;;;;;;1.28;100.00;99717.05;1756649;81;21059;-58
2022/11/23 01:54:06;;;;;;;11.83;7.83;;;;;;;1.28;100.00;99722.66;1756191;81;21478;-57
2022/11/23 01:56:39;;;;;;;11.00;7.37;;;;;;;1.28;100.00;99727.80;1765980;80;21307;-58
2022/11/23 01:59:11;;;;;;;11.40;7.60;;;;;;;1.27;100.00;99724.42;1743506;82;21499;-63
2022/11/23 02:01:39;;;;;;;10.32;7.62;;;;;;;1.32;100.00;99734.28;1743426;80;20936;-58
2022/11/23 02:04:10;;;;;;;11.85;8.28;;;;;;;1.33;100.00;99730.79;1743846;81;20942;-58
2022/11/23 02:06:39;;;;;;;12.90;8.33;;;;;;;1.32;100.00;99735.56;1744022;80;20964;-58
2022/11/23 02:09:06;;;;;;;13.60;8.38;;;;;;;1.11;100.00;99734.44;1779384;80;21180;-58
2022/11/23 02:11:34;;;;;;;11.28;8.30;;;;;;;1.12;100.00;99736.05;1746001;80;20949;-64
2022/11/23 02:14:01;;;;;;;12.65;8.65;;;;;;;1.16;100.00;99742.53;1745815;82;21498;-62
2022/11/23 02:16:30;;;;;;;12.75;9.03;;;;;;;1.24;100.00;99737.53;1777938;80;20994;-58
2022/11/23 02:18:57;;;;;;;13.08;8.23;;;;;;;1.21;100.00;99745.50;1747990;81;21379;-59
2022/11/23 02:21:24;;;;;;;15.08;9.75;;;;;;;1.23;100.00;99741.53;1778712;80;21201;-59
2022/11/23 02:24:30;;;;;;;13.88;9.78;;;;;;;1.29;100.00;99742.25;1778489;80;20952;-58
2022/11/23 02:26:57;;;;;;;13.35;9.00;;;;;;;1.28;100.00;99739.36;1777871;80;20955;-59
2022/11/23 02:29:26;;;;;;;17.10;10.50;;;;;;;1.33;100.00;99742.34;1778557;79;20980;-59
2022/11/23 02:31:54;;;;;;;15.15;9.55;;;;;;;1.38;100.00;99751.72;1777814;80;20888;-60
2022/11/23 02:34:25;;;;;;;15.80;10.53;;;;;;;1.39;100.00;99759.76;1747754;81;21251;-60
2022/11/23 02:36:55;;;;;;;14.93;9.70;;;;;;;1.38;100.00;99748.68;1778242;80;20888;-59
2022/11/23 02:39:41;;;;;;;15.25;9.83;;;;;;;1.41;100.00;99750.17;1746964;80;20990;-58
2022/11/23 02:42:09;;;;;;;14.87;9.13;;;;;;;1.40;100.00;99757.52;1778543;80;21000;-58
2022/11/23 02:45:03;;;;;;;13.18;8.88;;;;;;;1.38;100.00;99760.71;1778760;80;21821;-58
2022/11/23 02:47:31;;;;;;;15.30;10.28;;;;;;;1.33;100.00;99757.27;1778766;80;21334;-58
2022/11/23 02:50:00;;;;;;;15.58;10.93;;;;;;;1.35;100.00;99760.98;1778673;80;20873;-58
2022/11/23 02:52:28;;;;;;;13.53;9.63;;;;;;;1.34;100.00;99765.30;1778704;79;20932;-58
2022/11/23 02:54:56;;;;;;;13.35;8.18;;;;;;;1.34;100.00;99759.36;1777994;80;21214;-58
2022/11/23 02:57:23;;;;;;;11.93;7.60;;;;;;;1.35;100.00;99756.65;1778938;80;21020;-59
2022/11/23 02:59:50;;;;;;;13.93;7.83;;;;;;;1.33;100.00;99756.47;1778574;80;21922;-58
2022/11/23 03:02:17;;;;;;;10.85;6.65;;;;;;;1.36;100.00;99758.27;1778685;80;21273;-58
2022/11/23 03:04:46;;;;;;;10.08;7.05;;;;;;;1.38;100.00;99765.84;1747425;82;20901;-66
2022/11/23 03:07:13;;;;;;;11.68;6.80;;;;;;;1.41;100.00;99768.15;1778400;79;20892;-58
2022/11/23 03:09:41;;;;;;;11.70;7.10;;;;;;;1.40;100.00;99769.08;1779312;80;20939;-58
2022/11/23 03:12:09;;;;;;;10.00;6.30;;;;;;;1.39;100.00;99775.16;1780004;80;21095;-58
2022/11/23 03:14:37;;;;;;;9.98;6.33;;;;;;;1.38;100.00;99773.55;1779298;80;20976;-62
2022/11/23 03:17:04;;;;;;;9.65;5.85;;;;;;;1.40;100.00;99787.89;1778824;80;20959;-59
2022/11/23 03:19:35;;;;;;;10.88;5.83;;;;;;;1.42;100.00;99779.56;1779659;79;21029;-58
2022/11/23 03:22:03;;;;;;;10.72;6.70;;;;;;;1.46;100.00;99779.63;1779700;80;21461;-58
2022/11/23 03:24:31;;;;;;;10.20;6.12;;;;;;;1.47;100.00;99791.98;1779390;80;21270;-58
2022/11/23 03:26:59;;;;;;;9.40;5.72;;;;;;;1.50;100.00;99793.48;1778748;80;20966;-59
2022/11/23 03:29:27;;;;;;;8.78;5.08;;;;;;;1.48;100.00;99787.66;1779736;80;21005;-58
2022/11/23 03:31:54;;;;;;;8.15;5.20;;;;;;;1.46;100.00;99795.52;1779190;80;21476;-64
2022/11/23 03:34:22;;;;;;;10.43;5.97;;;;;;;1.43;100.00;99795.77;1784867;79;20995;-58
2022/11/23 03:36:49;;;;;;;9.38;5.28;;;;;;;1.43;100.00;99804.77;1805736;79;21236;-65
2022/11/23 03:39:18;;;;;;;8.93;5.42;;;;;;;1.41;100.00;99801.53;1805496;79;20924;-59
2022/11/23 03:41:55;;;;;;;9.20;5.58;;;;;;;1.37;100.00;99802.75;1803252;79;20912;-58
2022/11/23 03:44:24;;;;;;;9.40;5.55;;;;;;;1.33;100.00;99812.48;1805597;79;21033;-64
2022/11/23 03:46:51;;;;;;;9.50;6.08;;;;;;;1.36;100.00;99812.66;1805480;79;21437;-65
2022/11/23 03:49:18;;;;;;;9.45;6.03;;;;;;;1.36;100.00;99802.39;1805455;79;21116;-58
2022/11/23 03:51:46;;;;;;;10.15;5.62;;;;;;;1.31;100.00;99807.12;1806482;79;21528;-58
2022/11/23 03:54:14;;;;;;;10.35;5.95;;;;;;;1.31;100.00;99818.20;1806214;79;20928;-58
2022/11/23 03:56:41;;;;;;;9.88;6.28;;;;;;;1.29;100.00;99823.13;1806131;79;21129;-59
2022/11/23 03:59:09;;;;;;;8.83;5.55;;;;;;;1.28;100.00;99824.89;1805739;79;21040;-59
2022/11/23 04:01:37;;;;;;;8.93;5.22;;;;;;;1.31;100.00;99831.05;1773944;79;21810;-59
2022/11/23 04:04:06;;;;;;;10.72;6.33;;;;;;;1.26;100.00;99828.56;1806128;79;21090;-59
2022/11/23 04:06:52;;;;;;;10.82;6.22;;;;;;;1.29;100.00;99821.84;1780212;79;21470;-58
2022/11/23 04:09:21;;;;;;;9.35;6.17;;;;;;;1.28;100.00;99819.76;1777565;79;20890;-64
2022/11/23 04:11:50;;;;;;;10.80;6.47;;;;;;;1.23;100.00;99823.69;1726707;82;20965;-58
2022/11/23 04:14:19;;;;;;;9.68;5.85;;;;;;;1.21;100.00;99815.65;1773604;80;21261;-59
2022/11/23 04:16:46;;;;;;;9.93;6.00;;;;;;;1.21;100.00;99816.94;1772634;80;20987;-58
2022/11/23 04:19:14;;;;;;;10.85;6.03;;;;;;;1.23;100.00;99824.48;1773480;80;21084;-58
2022/11/23 04:21:41;;;;;;;9.60;6.00;;;;;;;1.24;100.00;99817.59;1757190;80;21017;-65
2022/11/23 04:24:08;;;;;;;9.75;5.65;;;;;;;1.25;100.00;99820.49;1745813;82;20988;-58
2022/11/23 04:26:36;;;;;;;11.53;5.92;;;;;;;1.25;100.00;99819.20;1773050;80;22341;-66
2022/11/23 04:29:03;;;;;;;10.38;6.03;;;;;;;1.21;100.00;99834.06;1773006;80;21569;-60
2022/11/23 04:31:31;;;;;;;11.40;6.55;;;;;;;1.24;100.00;99826.58;1773440;80;21047;-58
2022/11/23 04:34:00;;;;;;;9.63;5.58;;;;;;;1.25;100.00;99834.61;1760937;80;20981;-58
2022/11/23 04:36:29;;;;;;;8.93;5.35;;;;;;;1.16;100.00;99828.05;1741402;82;20886;-65
2022/11/23 04:38:56;;;;;;;9.85;6.37;;;;;;;1.13;100.00;99822.38;1745439;82;21571;-66
2022/11/23 04:41:25;;;;;;;10.63;6.22;;;;;;;1.12;100.00;99831.02;1772467;80;22244;-58
2022/11/23 04:43:52;;;;;;;11.35;7.28;;;;;;;1.07;100.00;99834.47;1746262;82;20953;-59
2022/11/23 04:46:19;;;;;;;11.90;6.90;;;;;;;1.12;100.00;99834.40;1773276;80;21023;-58
2022/11/23 10:00:20;;;;;;;12.60;9.20;;;;;;;1.54;100.00;100011.41;1747494;80;22011;-67
2022/11/23 10:02:49;;;;;;;14.00;8.95;;;;;;;1.58;100.00;100019.67;1692671;83;21985;-58
2022/11/23 10:05:22;;;;;;;13.72;8.80;;;;;;;1.64;100.00;100007.12;1690722;84;21294;-60
2022/11/23 10:07:59;;;;;;;13.00;8.73;;;;;;;1.63;100.00;100017.06;1693037;84;20982;-59
2022/11/23 10:11:05;;;;;;;12.03;9.20;;;;;;;1.64;100.00;100025.58;1687358;84;20996;-63
2022/11/23 10:13:52;;;;;;;15.65;10.40;;;;;;;1.63;100.00;100015.78;1690265;84;20885;-65
2022/11/23 10:16:57;;;;;;;15.70;10.95;;;;;;;1.62;100.00;100017.98;1672319;84;20948;-60
2022/11/23 10:19:45;;;;;;;18.67;11.93;;;;;;;1.65;100.00;100006.17;1690731;83;22348;-58
2022/11/23 10:22:50;;;;;;;17.62;11.73;;;;;;;1.63;100.00;100000.81;1686102;84;21067;-59
2022/11/23 10:25:19;;;;;;;15.83;10.28;;;;;;;1.57;100.00;100006.02;1694334;84;21064;-60
2022/11/23 10:27:48;;;;;;;15.32;10.25;;;;;;;1.65;100.00;100010.02;1691260;84;21115;-59
2022/11/23 10:30:39;;;;;;;15.60;10.82;;;;;;;1.72;100.00;100006.46;1687445;84;21019;-66
2022/11/23 10:33:31;;;;;;;18.02;11.53;;;;;;;1.73;100.00;100009.36;1704873;83;20995;-59
2022/11/23 10:35:58;;;;;;;15.30;9.78;;;;;;;1.84;100.00;100017.44;1656925;84;21090;-60
2022/11/23 10:38:26;;;;;;;14.40;8.90;;;;;;;1.83;100.00;100013.25;1694991;83;21038;-58
2022/11/23 10:41:05;;;;;;;15.50;9.73;;;;;;;1.76;100.00;100017.29;1686372;84;21067;-59
2022/11/23 10:43:51;;;;;;;13.30;9.18;;;;;;;1.76;100.00;100013.44;1689844;84;21126;-59
2022/11/23 10:46:25;;;;;;;13.00;8.65;;;;;;;1.77;100.00;100007.34;1687363;84;21317;-59
2022/11/23 10:48:52;;;;;;;13.43;8.50;;;;;;;1.75;100.00;100002.83;1704036;83;20929;-62
2022/11/23 10:51:31;;;;;;;15.13;9.40;;;;;;;1.81;100.00;100005.66;1682547;84;22469;-61
2022/11/23 10:54:03;;;;;;;12.35;8.78;;;;;;;1.79;100.00;100005.47;1687591;84;21008;-59
2022/11/23 10:56:31;;;;;;;13.53;8.78;;;;;;;1.79;100.00;100004.19;1692664;83;20940;-64
2022/11/23 10:58:58;;;;;;;17.45;11.60;;;;;;;1.78;100.00;99999.52;1684907;84;21305;-59
2022/11/23 11:01:28;;;;;;;17.07;10.20;;;;;;;1.74;100.00;100002.46;1683910;84;21099;-59
2022/11/23 11:03:59;;;;;;;14.68;9.50;;;;;;;1.69;100.00;100007.53;1682189;84;21001;-58
2022/11/23 11:06:29;;;;;;;13.32;8.50;;;;;;;1.73;100.00;100009.84;1678578;84;21017;-61
2022/11/23 11:09:00;;;;;;;16.10;10.13;;;;;;;1.73;100.00;100019.64;1675427;84;21547;-58
2022/11/23 11:11:34;;;;;;;16.05;9.90;;;;;;;1.66;100.00;100024.96;1678291;84;21179;-58
2022/11/23 11:14:17;;;;;;;13.50;9.28;;;;;;;1.65;100.00;100016.45;1663096;85;21464;-61
2022/11/23 11:16:54;;;;;;;15.85;9.38;;;;;;;1.73;100.00;100021.41;1687835;84;21055;-60
2022/11/23 11:19:29;;;;;;;;;;;;;;;1.67;100.00;100017.14;1649509;87;20915;-59
2022/11/23 11:21:58;;;;;;;16.67;9.58;;;;;;;1.62;100.00;100019.27;1704004;82;20144;-63
2022/11/23 11:24:34;;;;;;;14.95;9.70;;;;;;;1.56;100.00;100018.53;1672848;84;21827;-64
2022/11/23 11:27:05;;;;;;;16.30;11.03;;;;;;;1.51;100.00;100016.80;1672114;84;21526;-58
2022/11/23 11:29:41;;;;;;;16.37;10.60;;;;;;;1.58;100.00;100013.25;1698219;83;21020;-59
2022/11/23 11:32:22;;;;;;;14.13;9.18;;;;;;;1.60;100.00;100005.77;1694392;82;21506;-59
2022/11/23 11:34:56;;;;;;;15.50;9.50;;;;;;;1.63;100.00;100018.34;1704941;83;21011;-57
2022/11/23 11:37:36;;;;;;;15.05;9.68;;;;;;;1.62;100.00;100024.89;1699721;83;22352;-57
2022/11/23 11:40:32;;;;;;;12.98;8.93;;;;;;;1.56;100.00;100026.23;1698229;83;23204;-58
2022/11/23 11:43:29;;;;;;;12.28;7.78;;;;;;;1.63;100.00;100021.36;1697073;83;21090;-63
2022/11/23 11:46:01;;;;;;;15.25;9.00;;;;;;;1.67;100.00;100035.60;1670461;84;21015;-58
2022/11/23 11:48:47;;;;;;;16.35;10.63;;;;;;;1.56;100.00;100049.83;1704627;83;20954;-58
2022/11/23 11:51:21;;;;;;;12.85;8.05;;;;;;;1.55;100.00;100045.14;1672652;84;21259;-58
2022/11/23 11:54:06;;;;;;;12.78;8.50;;;;;;;1.52;100.00;100047.99;1672908;85;21546;-65
2022/11/23 11:56:40;;;;;;;11.75;7.35;;;;;;;1.51;100.00;100051.48;1673463;83;20930;-58
2022/11/23 11:59:17;;;;;;;9.73;6.62;;;;;;;1.50;100.00;100060.61;1697138;83;21084;-59
2022/11/23 12:02:05;;;;;;;12.55;7.85;;;;;;;1.45;100.00;100059.72;1691388;83;20956;-60
2022/11/23 12:04:39;;;;;;;10.40;6.70;;;;;;;1.45;100.00;100063.58;1689684;84;21310;-59
2022/11/23 12:07:32;;;;;;;10.55;7.50;;;;;;;1.44;100.00;100067.09;1693435;83;21505;-61
2022/11/23 12:10:25;;;;;;;11.38;7.40;;;;;;;1.44;100.00;100069.19;1692278;83;21070;-58
2022/11/23 12:12:52;;;;;;;11.45;7.28;;;;;;;1.44;100.00;100070.47;1690183;84;21014;-60
2022/11/23 12:15:30;;;;;;;10.90;7.33;;;;;;;1.33;100.00;100071.03;1686501;84;22915;-59
2022/11/23 12:18:28;;;;;;;10.00;6.70;;;;;;;1.29;100.00;100070.91;1690424;84;21264;-59
2022/11/23 12:21:03;;;;;;;12.25;7.53;;;;;;;1.31;100.00;100081.41;1688206;84;21881;-58
2022/11/23 12:24:24;;;;;;;11.50;6.83;;;;;;;1.31;100.00;100089.11;1683448;83;21363;-61
2022/11/23 12:27:10;;;;;;;13.60;8.63;;;;;;;1.26;100.00;100092.55;1687244;84;20930;-60
2022/11/23 12:29:52;;;;;;;14.80;9.50;;;;;;;1.26;100.00;100090.45;1694873;83;20949;-59
